createdAt,value
2023-10-29T00:02:39.116Z,4.22
2023-10-29T00:05:44.783Z,7.55
2023-10-29T00:08:50.184Z,7.03
2023-10-29T00:11:55.445Z,4.78
2023-10-29T00:15:03.808Z,3.67
2023-10-29T00:18:10.409Z,4.22
2023-10-29T00:21:16.106Z,5.38
2023-10-29T00:24:23.585Z,4.65
2023-10-29T00:27:29.034Z,3.20
2023-10-29T00:30:37.583Z,5.30
2023-10-29T00:33:43.473Z,4.20
2023-10-29T00:36:48.842Z,4.03
2023-10-29T00:39:54.372Z,3.35
2023-10-29T00:42:59.716Z,3.90
2023-10-29T00:46:07.760Z,3.20
2023-10-29T00:49:13.135Z,3.33
2023-10-29T00:52:19.544Z,5.20
2023-10-29T00:55:25.035Z,7.22
2023-10-29T00:58:31.608Z,2.88
2023-10-29T01:01:39.508Z,2.55
2023-10-29T01:04:47.001Z,3.78
2023-10-29T01:07:52.868Z,3.70
2023-10-29T01:10:59.100Z,2.88
2023-10-29T01:14:05.350Z,2.58
2023-10-29T01:17:13.850Z,3.30
2023-10-29T01:23:24.810Z,3.30
2023-10-29T01:26:30.071Z,3.55
2023-10-29T01:29:35.696Z,4.00
2023-10-29T01:32:43.716Z,2.72
2023-10-29T01:35:49.569Z,2.90
2023-10-29T01:38:54.851Z,3.42
2023-10-29T01:42:00.289Z,2.92
2023-10-29T01:45:05.787Z,3.20
2023-10-29T01:48:14.197Z,2.25
2023-10-29T01:54:26.916Z,3.85
2023-10-29T01:57:33.670Z,3.28
2023-10-29T02:00:39.071Z,1.80
2023-10-29T02:03:47.141Z,2.00
2023-10-29T02:06:52.677Z,2.60
2023-10-29T02:09:57.796Z,2.63
2023-10-29T02:13:03.140Z,2.72
2023-10-29T02:16:10.557Z,2.88
2023-10-29T02:19:18.835Z,2.85
2023-10-29T02:22:26.948Z,2.95
2023-10-29T02:25:32.364Z,1.85
2023-10-29T02:28:37.701Z,3.88
2023-10-29T02:31:43.293Z,3.80
2023-10-29T02:34:49.312Z,4.93
2023-10-29T02:37:57.410Z,3.88
2023-10-29T02:41:02.923Z,3.20
2023-10-29T02:44:08.403Z,5.07
2023-10-29T02:47:13.700Z,4.25
2023-10-29T02:50:19.155Z,3.17
2023-10-29T02:53:27.207Z,3.72
2023-10-29T02:56:32.852Z,3.35
2023-10-29T02:59:38.365Z,3.55
2023-10-29T03:02:44.098Z,4.13
2023-10-29T03:05:56.818Z,4.88
2023-10-29T03:09:05.414Z,4.22
2023-10-29T03:12:11.006Z,5.30
2023-10-29T03:15:16.420Z,4.78
2023-10-29T03:18:22.152Z,3.80
2023-10-29T03:21:28.152Z,6.00
2023-10-29T03:24:35.952Z,5.63
2023-10-29T03:27:41.483Z,5.93
2023-10-29T03:30:46.825Z,4.65
2023-10-29T03:33:52.167Z,5.35
2023-10-29T03:36:57.448Z,5.07
2023-10-29T03:40:07.798Z,6.10
2023-10-29T03:43:14.122Z,5.20
2023-10-29T03:46:19.690Z,5.28
2023-10-29T03:49:25.542Z,6.20
2023-10-29T03:52:30.895Z,6.00
2023-10-29T03:55:39.550Z,7.80
2023-10-29T03:58:44.978Z,6.20
2023-10-29T04:01:50.195Z,6.40
2023-10-29T04:05:08.175Z,6.07
2023-10-29T04:08:14.954Z,7.00
2023-10-29T04:11:24.950Z,5.20
2023-10-29T04:14:30.256Z,6.05
2023-10-29T04:17:35.609Z,6.60
2023-10-29T04:20:40.867Z,5.47
2023-10-29T04:23:46.459Z,6.63
2023-10-29T04:26:54.460Z,6.22
2023-10-29T04:30:00.833Z,5.55
2023-10-29T04:33:09.655Z,6.78
2023-10-29T04:36:22.143Z,6.93
2023-10-29T04:39:27.560Z,6.43
2023-10-29T04:42:35.472Z,7.85
2023-10-29T04:45:40.673Z,8.95
2023-10-29T04:48:46.248Z,8.88
2023-10-29T04:51:51.605Z,8.48
2023-10-29T04:54:56.986Z,8.23
2023-10-29T04:58:04.891Z,8.50
2023-10-29T05:01:10.325Z,9.05
2023-10-29T05:04:15.537Z,9.70
2023-10-29T05:07:21.486Z,8.32
2023-10-29T05:10:29.843Z,9.25
2023-10-29T05:16:42.507Z,10.55
2023-10-29T05:19:48.534Z,10.07
2023-10-29T05:22:54.423Z,10.63
2023-10-29T05:25:59.651Z,10.13
2023-10-29T05:29:05.049Z,11.88
2023-10-29T05:32:13.276Z,11.93
2023-10-29T05:35:19.427Z,10.15
2023-10-29T05:38:24.845Z,10.70
2023-10-29T05:41:30.434Z,11.88
2023-10-29T05:44:36.137Z,12.13
2023-10-29T05:47:44.225Z,11.45
2023-10-29T05:50:49.594Z,10.75
2023-10-29T05:53:54.935Z,11.95
2023-10-29T05:57:00.419Z,10.60
2023-10-29T06:00:05.887Z,12.45
2023-10-29T06:03:20.458Z,9.25
2023-10-29T06:06:26.067Z,10.95
2023-10-29T06:09:31.445Z,11.65
2023-10-29T06:12:37.329Z,12.77
2023-10-29T06:15:42.624Z,12.73
2023-10-29T06:18:50.531Z,11.55
2023-10-29T06:21:56.296Z,9.80
2023-10-29T06:25:01.986Z,10.40
2023-10-29T06:28:09.494Z,11.45
2023-10-29T06:31:15.166Z,10.57
2023-10-29T06:34:23.097Z,10.15
2023-10-29T06:37:28.598Z,10.75
2023-10-29T06:40:33.945Z,10.02
2023-10-29T06:43:39.553Z,12.02
2023-10-29T06:46:44.786Z,13.35
2023-10-29T06:49:53.243Z,9.35
2023-10-29T06:52:58.488Z,11.90
2023-10-29T06:56:04.642Z,13.02
2023-10-29T06:59:09.976Z,13.32
2023-10-29T07:02:15.671Z,15.32
2023-10-29T07:05:23.946Z,14.80
2023-10-29T07:08:29.346Z,16.38
2023-10-29T07:11:34.894Z,17.02
2023-10-29T07:14:40.317Z,16.73
2023-10-29T07:17:45.559Z,14.95
2023-10-29T07:20:54.892Z,14.98
2023-10-29T07:24:00.413Z,15.80
2023-10-29T07:27:05.698Z,15.63
2023-10-29T07:30:11.913Z,18.25
2023-10-29T07:33:17.467Z,15.00
2023-10-29T07:36:26.213Z,15.82
2023-10-29T07:39:32.226Z,15.68
2023-10-29T07:42:37.540Z,20.80
2023-10-29T07:45:43.085Z,15.32
2023-10-29T07:48:48.291Z,15.82
2023-10-29T07:51:56.408Z,13.10
2023-10-29T07:55:01.557Z,14.75
2023-10-29T07:58:07.523Z,15.63
2023-10-29T08:01:16.534Z,15.05
2023-10-29T08:04:22.202Z,14.50
2023-10-29T08:07:31.982Z,16.13
2023-10-29T08:10:38.709Z,14.02
2023-10-29T08:13:45.071Z,14.52
2023-10-29T08:16:50.545Z,18.83
2023-10-29T08:19:56.242Z,13.05
2023-10-29T08:23:04.338Z,15.63
2023-10-29T08:26:09.658Z,14.60
2023-10-29T08:29:15.604Z,15.60
2023-10-29T08:32:21.735Z,14.00
2023-10-29T08:35:27.230Z,12.30
2023-10-29T08:38:35.294Z,13.98
2023-10-29T08:41:40.696Z,20.15
2023-10-29T08:44:46.043Z,14.63
2023-10-29T08:47:51.846Z,13.18
2023-10-29T08:50:57.323Z,14.50
2023-10-29T08:54:05.830Z,14.20
2023-10-29T09:00:17.085Z,15.10
2023-10-29T09:03:22.707Z,13.98
2023-10-29T09:06:28.643Z,13.00
2023-10-29T09:09:37.564Z,15.13
2023-10-29T09:12:43.075Z,14.82
2023-10-29T09:15:50.477Z,13.57
2023-10-29T09:18:56.093Z,14.40
2023-10-29T09:22:01.573Z,14.82
2023-10-29T09:25:10.753Z,12.38
2023-10-29T09:28:16.220Z,12.40
2023-10-29T09:31:21.910Z,12.07
2023-10-29T09:34:27.377Z,11.95
2023-10-29T09:37:34.092Z,10.55
2023-10-29T09:40:42.543Z,13.75
2023-10-29T09:46:56.486Z,12.02
2023-10-29T09:50:02.916Z,13.88
2023-10-29T09:53:09.540Z,11.77
2023-10-29T09:56:17.668Z,12.82
2023-10-29T10:02:27.895Z,10.45
2023-10-29T10:05:34.501Z,12.07
2023-10-29T10:08:39.939Z,12.95
2023-10-29T10:11:47.814Z,9.95
2023-10-29T10:14:53.997Z,10.95
2023-10-29T10:18:01.252Z,12.02
2023-10-29T10:21:07.455Z,10.95
2023-10-29T10:24:13.242Z,10.68
2023-10-29T10:27:21.446Z,14.02
2023-10-29T10:30:30.578Z,10.57
2023-10-29T10:33:36.142Z,10.70
2023-10-29T10:36:41.718Z,10.07
2023-10-29T10:39:47.160Z,10.40
2023-10-29T10:43:00.324Z,8.77
2023-10-29T10:46:06.644Z,10.93
2023-10-29T10:49:12.251Z,10.57
2023-10-29T10:52:18.623Z,10.27
2023-10-29T10:55:41.316Z,10.55
2023-10-29T10:58:52.754Z,10.27
2023-10-29T11:01:58.465Z,12.38
2023-10-29T11:05:06.076Z,13.93
2023-10-29T11:08:11.615Z,11.95
2023-10-29T11:11:17.706Z,13.13
2023-10-29T11:14:26.721Z,10.20
2023-10-29T11:17:47.038Z,9.55
2023-10-29T11:21:01.092Z,12.70
2023-10-29T11:24:22.587Z,8.80
2023-10-29T11:27:40.939Z,9.02
2023-10-29T11:34:13.826Z,11.15
2023-10-29T11:37:34.014Z,7.90
2023-10-29T11:40:41.499Z,22.17
2023-10-29T11:43:46.690Z,8.18
2023-10-29T11:47:13.885Z,8.85
2023-10-29T11:50:21.697Z,8.43
2023-10-29T11:53:28.204Z,8.93
2023-10-29T11:56:35.851Z,7.45
2023-10-29T11:59:56.269Z,7.82
2023-10-29T12:03:02.090Z,12.63
2023-10-29T12:06:10.572Z,6.88
2023-10-29T12:09:19.287Z,14.55
2023-10-29T12:12:24.791Z,7.50
2023-10-29T12:15:30.518Z,10.30
2023-10-29T12:18:36.565Z,12.57
2023-10-29T12:21:57.615Z,8.75
2023-10-29T12:25:04.454Z,9.45
2023-10-29T12:28:14.420Z,8.45
2023-10-29T12:31:26.730Z,8.93
2023-10-29T12:34:32.087Z,11.40
2023-10-29T12:37:40.041Z,9.18
2023-10-29T12:41:00.039Z,8.30
2023-10-29T12:44:05.526Z,9.68
2023-10-29T12:47:10.691Z,9.25
2023-10-29T12:50:16.351Z,13.13
2023-10-29T12:53:28.529Z,13.55
2023-10-29T12:56:33.909Z,10.98
2023-10-29T12:59:39.921Z,12.38
2023-10-29T13:02:45.496Z,12.95
2023-10-29T13:05:50.914Z,12.07
2023-10-29T13:08:58.811Z,11.30
2023-10-29T13:12:04.412Z,10.65
2023-10-29T13:15:13.844Z,11.00
2023-10-29T13:18:20.840Z,8.57
2023-10-29T13:21:27.789Z,16.65
2023-10-29T13:24:35.678Z,9.93
2023-10-29T13:27:41.826Z,10.68
2023-10-29T13:30:47.078Z,14.68
2023-10-29T13:33:53.645Z,9.27
2023-10-29T13:36:59.435Z,10.00
2023-10-29T13:40:08.373Z,8.02
2023-10-29T13:43:14.220Z,11.25
2023-10-29T13:46:19.739Z,8.52
2023-10-29T13:49:25.380Z,7.18
2023-10-29T13:52:30.769Z,10.07
2023-10-29T13:55:38.821Z,10.32
2023-10-29T13:58:44.604Z,17.15
2023-10-29T14:01:50.043Z,11.05
2023-10-29T14:04:55.684Z,8.60
2023-10-29T14:08:01.882Z,9.20
2023-10-29T14:11:10.224Z,9.15
2023-10-29T14:14:15.853Z,10.98
2023-10-29T14:17:21.378Z,8.10
2023-10-29T14:20:26.929Z,10.02
2023-10-29T14:23:32.115Z,8.18
2023-10-29T14:26:41.310Z,8.77
2023-10-29T14:29:46.813Z,9.00
2023-10-29T14:32:52.181Z,6.50
2023-10-29T14:35:57.994Z,8.00
2023-10-29T14:39:03.595Z,7.45
2023-10-29T14:42:11.524Z,6.47
2023-10-29T14:45:17.250Z,7.72
2023-10-29T14:48:23.088Z,6.40
2023-10-29T14:51:28.390Z,7.05
2023-10-29T14:54:33.840Z,7.00
2023-10-29T14:57:42.192Z,9.02
2023-10-29T15:00:48.681Z,6.28
2023-10-29T15:03:54.778Z,8.32
2023-10-29T15:07:00.170Z,5.57
2023-10-29T15:10:06.844Z,6.65
2023-10-29T15:13:14.893Z,7.00
2023-10-29T15:16:20.190Z,6.50
2023-10-29T15:19:36.178Z,6.88
2023-10-29T15:22:42.599Z,4.60
2023-10-29T15:25:48.042Z,6.75
2023-10-29T15:28:56.146Z,7.55
2023-10-29T15:32:01.508Z,4.68
2023-10-29T15:35:07.113Z,5.88
2023-10-29T15:38:13.555Z,9.15
2023-10-29T15:41:20.022Z,4.57
2023-10-29T15:44:27.934Z,4.75
2023-10-29T15:47:33.304Z,5.63
2023-10-29T15:50:39.095Z,3.70
2023-10-29T15:53:46.107Z,5.63
2023-10-29T15:56:52.446Z,5.72
2023-10-29T16:00:02.980Z,3.58
2023-10-29T16:03:14.401Z,5.03
2023-10-29T16:06:20.423Z,5.53
2023-10-29T16:09:25.931Z,7.18
2023-10-29T16:12:31.343Z,5.53
2023-10-29T16:15:39.355Z,5.10
2023-10-29T16:18:44.832Z,4.88
2023-10-29T16:21:50.176Z,11.23
2023-10-29T16:24:56.464Z,5.28
2023-10-29T16:28:02.234Z,4.82
2023-10-29T16:31:13.002Z,10.32
2023-10-29T16:34:18.425Z,4.32
2023-10-29T16:37:24.338Z,4.18
2023-10-29T16:40:29.702Z,4.53
2023-10-29T16:43:35.117Z,4.90
2023-10-29T16:46:43.006Z,5.55
2023-10-29T16:49:51.176Z,3.90
2023-10-29T16:52:56.695Z,5.28
2023-10-29T16:56:05.692Z,4.50
2023-10-29T16:59:11.431Z,5.97
2023-10-29T17:02:19.667Z,5.03
2023-10-29T17:05:25.039Z,4.97
2023-10-29T17:08:30.684Z,5.43
2023-10-29T17:11:36.150Z,4.13
2023-10-29T17:14:41.747Z,4.43
2023-10-29T17:17:49.677Z,4.35
2023-10-29T17:20:56.301Z,5.47
2023-10-29T17:24:02.140Z,4.72
2023-10-29T17:27:08.317Z,6.68
2023-10-29T17:30:14.474Z,4.13
2023-10-29T17:33:23.426Z,5.13
2023-10-29T17:36:29.079Z,5.10
2023-10-29T17:39:35.499Z,4.53
2023-10-29T17:42:41.126Z,5.95
2023-10-29T17:45:48.725Z,5.97
2023-10-29T17:48:56.706Z,4.75
2023-10-29T17:52:05.011Z,5.25
2023-10-29T17:55:10.959Z,6.63
2023-10-29T17:58:16.793Z,4.78
2023-10-29T18:01:22.921Z,5.35
2023-10-29T18:04:31.184Z,6.50
2023-10-29T18:07:36.481Z,5.55
2023-10-29T18:10:42.151Z,5.80
2023-10-29T18:13:47.569Z,5.13
2023-10-29T18:16:54.069Z,5.50
2023-10-29T18:20:02.023Z,5.57
2023-10-29T18:23:10.399Z,4.80
2023-10-29T18:26:15.788Z,6.05
2023-10-29T18:29:21.374Z,6.18
2023-10-29T18:32:26.808Z,6.13
2023-10-29T18:35:35.693Z,7.22
2023-10-29T18:38:41.304Z,6.22
2023-10-29T18:41:47.067Z,9.57
2023-10-29T18:44:52.366Z,7.78
2023-10-29T18:47:58.523Z,10.07
2023-10-29T18:51:09.358Z,7.72
2023-10-29T18:54:14.839Z,7.47
2023-10-29T18:57:22.884Z,6.85
2023-10-29T19:00:28.512Z,6.70
2023-10-29T19:03:34.151Z,7.38
2023-10-29T19:06:43.260Z,21.33
2023-10-29T19:09:48.947Z,8.25
2023-10-29T19:12:54.311Z,6.63
2023-10-29T19:16:03.701Z,10.27
2023-10-29T19:19:09.136Z,7.20
2023-10-29T19:22:18.339Z,8.07
2023-10-29T19:25:23.592Z,9.50
2023-10-29T19:28:29.212Z,9.23
2023-10-29T19:31:34.378Z,9.45
2023-10-29T19:34:39.572Z,9.90
2023-10-29T19:37:47.415Z,9.95
2023-10-29T19:40:59.448Z,11.57
2023-10-29T19:44:05.009Z,9.70
2023-10-29T19:47:11.051Z,9.52
2023-10-29T19:50:17.243Z,10.70
2023-10-29T19:53:25.319Z,10.77
2023-10-29T19:56:30.817Z,10.10
2023-10-29T19:59:37.230Z,9.63
2023-10-29T20:02:43.002Z,7.78
2023-10-29T20:05:50.774Z,9.82
2023-10-29T20:08:58.652Z,8.88
2023-10-29T20:12:04.263Z,10.60
2023-10-29T20:15:11.148Z,11.10
2023-10-29T20:18:16.605Z,10.88
2023-10-29T20:21:22.510Z,9.52
2023-10-29T20:24:30.910Z,8.05
2023-10-29T20:30:41.505Z,10.15
2023-10-29T20:33:47.236Z,11.52
2023-10-29T20:36:52.704Z,10.75
2023-10-29T20:40:00.642Z,10.23
2023-10-29T20:43:06.173Z,9.98
2023-10-29T20:46:12.850Z,9.05
2023-10-29T20:49:18.888Z,12.43
2023-10-29T20:52:24.182Z,10.02
2023-10-29T20:55:32.504Z,12.13
2023-10-29T20:58:38.035Z,11.13
2023-10-29T21:01:43.388Z,11.48
2023-10-29T21:04:48.944Z,9.68
2023-10-29T21:07:54.512Z,9.77
2023-10-29T21:11:10.143Z,10.23
2023-10-29T21:14:15.631Z,13.57
2023-10-29T21:17:20.913Z,11.80
2023-10-29T21:20:27.907Z,14.70
2023-10-29T21:23:33.285Z,12.90
2023-10-29T21:26:41.853Z,12.50
2023-10-29T21:32:52.832Z,10.48
2023-10-29T21:35:58.607Z,13.85
2023-10-29T21:39:06.060Z,11.00
2023-10-29T21:42:14.597Z,12.45
2023-10-29T21:45:20.305Z,13.98
2023-10-29T21:48:26.040Z,11.43
2023-10-29T21:51:31.592Z,13.85
2023-10-29T21:54:36.970Z,12.68
2023-10-29T21:57:45.438Z,13.63
2023-10-29T22:03:55.915Z,15.70
2023-10-29T22:07:01.451Z,11.85
2023-10-29T22:10:06.965Z,12.65
2023-10-29T22:13:16.901Z,12.07
2023-10-29T22:16:23.737Z,12.02
2023-10-29T22:19:29.206Z,12.00
2023-10-29T22:22:34.399Z,12.45
2023-10-29T22:25:40.471Z,12.98
2023-10-29T22:28:48.300Z,11.77
2023-10-29T22:31:53.701Z,14.10
2023-10-29T22:34:59.135Z,14.05
2023-10-29T22:38:05.641Z,14.93
2023-10-29T22:41:12.776Z,10.02
2023-10-29T22:44:21.194Z,10.38
2023-10-29T22:47:26.596Z,12.10
2023-10-29T22:50:32.286Z,10.55
2023-10-29T22:53:37.744Z,12.85
2023-10-29T22:56:43.551Z,10.90
2023-10-29T22:59:53.954Z,11.20
2023-10-29T23:03:01.130Z,11.65
2023-10-29T23:06:07.678Z,11.50
2023-10-29T23:09:13.765Z,10.50
2023-10-29T23:12:20.467Z,13.38
2023-10-29T23:15:28.460Z,11.70
2023-10-29T23:18:34.427Z,12.55
2023-10-29T23:21:40.249Z,12.07
2023-10-29T23:24:46.050Z,10.07
2023-10-29T23:27:51.576Z,10.85
2023-10-29T23:30:59.456Z,12.13
2023-10-29T23:34:04.919Z,9.45
2023-10-29T23:37:10.282Z,11.88
2023-10-29T23:40:16.449Z,11.15
2023-10-29T23:43:21.908Z,12.32
2023-10-29T23:46:30.035Z,12.63
2023-10-29T23:49:35.353Z,10.43
2023-10-29T23:52:40.573Z,12.63
2023-10-29T23:55:46.232Z,12.20
2023-10-29T23:58:51.671Z,12.43
